createdAt,value
2022-10-12T00:02:14.704Z,14.70
2022-10-12T00:12:14.667Z,14.40
2022-10-12T00:22:14.643Z,13.40
2022-10-12T00:32:14.662Z,14.00
2022-10-12T00:42:14.652Z,13.40
2022-10-12T00:52:14.727Z,14.40
2022-10-12T01:02:14.655Z,14.10
2022-10-12T01:12:14.654Z,13.70
2022-10-12T01:22:14.689Z,14.20
2022-10-12T01:32:14.691Z,14.30
2022-10-12T01:42:14.683Z,14.80
2022-10-12T02:02:14.751Z,13.40
2022-10-12T02:12:14.697Z,14.00
2022-10-12T02:22:14.702Z,14.20
2022-10-12T02:32:14.676Z,15.20
2022-10-12T02:42:14.685Z,14.00
2022-10-12T02:52:14.685Z,14.00
2022-10-12T03:02:14.703Z,13.80
2022-10-12T03:12:14.693Z,14.10
2022-10-12T03:22:14.689Z,13.00
2022-10-12T03:32:14.717Z,14.90
2022-10-12T03:42:14.723Z,14.50
2022-10-12T03:52:14.703Z,14.30
2022-10-12T04:02:17.097Z,14.30
2022-10-12T04:12:14.749Z,14.20
2022-10-12T04:22:14.722Z,14.20
2022-10-12T04:32:14.735Z,14.90
2022-10-12T04:42:14.740Z,14.90
2022-10-12T04:52:14.721Z,13.80
2022-10-12T05:02:14.743Z,14.00
2022-10-12T05:12:14.737Z,14.70
2022-10-12T05:22:14.756Z,14.00
2022-10-12T05:32:14.759Z,14.20
2022-10-12T05:42:14.736Z,14.90
2022-10-12T05:52:14.832Z,14.30
2022-10-12T06:02:14.847Z,15.60
2022-10-12T06:12:14.748Z,15.50
2022-10-12T06:22:14.827Z,14.90
2022-10-12T06:32:17.693Z,15.50
2022-10-12T06:42:14.779Z,14.30
2022-10-12T06:52:15.777Z,14.70
2022-10-12T07:02:14.807Z,14.60
2022-10-12T07:12:14.774Z,14.60
2022-10-12T07:22:14.785Z,12.20
2022-10-12T07:32:14.784Z,10.30
2022-10-12T07:42:19.112Z,2.50
2022-10-12T07:52:14.807Z,2.20
2022-10-12T08:02:14.986Z,2.10
2022-10-12T08:12:14.830Z,2.00
2022-10-12T08:22:14.814Z,1.70
2022-10-12T08:32:14.811Z,2.70
2022-10-12T08:42:14.819Z,4.10
2022-10-12T08:52:14.836Z,7.70
2022-10-12T09:02:14.975Z,5.80
2022-10-12T09:12:14.836Z,4.60
2022-10-12T09:22:14.844Z,3.70
2022-10-12T09:32:14.839Z,3.30
2022-10-12T09:42:14.842Z,3.40
2022-10-12T09:52:14.879Z,3.60
2022-10-12T10:02:14.853Z,2.60
2022-10-12T10:12:14.842Z,1.90
2022-10-12T10:22:14.855Z,2.50
2022-10-12T10:32:15.938Z,1.60
2022-10-12T10:42:14.850Z,2.00
2022-10-12T10:52:14.866Z,2.40
2022-10-12T11:02:14.862Z,2.40
2022-10-12T11:12:14.862Z,2.00
2022-10-12T11:22:14.868Z,2.40
2022-10-12T11:32:15.135Z,2.40
2022-10-12T11:42:21.966Z,12.60
2022-10-12T11:52:14.901Z,2.50
2022-10-12T12:02:14.898Z,2.60
2022-10-12T12:12:14.889Z,2.50
2022-10-12T12:22:14.894Z,2.40
2022-10-12T12:32:14.965Z,2.60
2022-10-12T12:42:14.915Z,2.30
2022-10-12T12:52:14.917Z,2.60
2022-10-12T13:02:14.906Z,7.90
2022-10-12T13:12:14.911Z,33.10
2022-10-12T13:22:15.008Z,2.60
2022-10-12T13:32:14.927Z,3.70
2022-10-12T13:42:14.944Z,3.30
2022-10-12T13:52:14.954Z,18.30
2022-10-12T14:02:14.947Z,4.80
2022-10-12T14:12:15.024Z,4.80
2022-10-12T14:22:14.963Z,3.50
2022-10-12T14:32:14.986Z,5.80
2022-10-12T14:42:14.966Z,2.70
2022-10-12T14:52:14.953Z,2.20
2022-10-12T15:02:14.970Z,2.10
2022-10-12T15:12:15.061Z,2.40
2022-10-12T15:22:14.983Z,2.40
2022-10-12T15:32:15.007Z,2.90
2022-10-12T15:42:15.081Z,2.10
2022-10-12T15:52:15.013Z,2.50
2022-10-12T16:02:14.987Z,2.20
2022-10-12T16:12:14.995Z,2.30
2022-10-12T16:22:15.006Z,2.50
2022-10-12T16:32:15.392Z,2.60
2022-10-12T16:42:15.393Z,4.60
2022-10-12T16:52:15.403Z,8.70
2022-10-12T17:02:15.421Z,13.30
2022-10-12T17:12:15.330Z,12.90
2022-10-12T17:22:15.317Z,13.30
2022-10-12T17:32:15.393Z,14.80
2022-10-12T17:42:15.321Z,15.40
2022-10-12T17:52:15.403Z,15.40
2022-10-12T18:02:15.042Z,15.90
2022-10-12T18:12:15.589Z,15.90
2022-10-12T18:22:15.421Z,17.30
2022-10-12T18:32:15.602Z,16.40
2022-10-12T18:42:15.401Z,16.10
2022-10-12T18:52:15.354Z,17.40
2022-10-12T19:02:15.448Z,17.10
2022-10-12T19:12:15.414Z,16.70
2022-10-12T19:22:15.390Z,16.10
2022-10-12T19:42:15.256Z,17.00
2022-10-12T19:52:15.355Z,18.80
2022-10-12T20:02:15.322Z,18.20
2022-10-12T20:12:15.425Z,18.10
2022-10-12T20:22:15.376Z,19.80
2022-10-12T20:32:15.456Z,19.00
2022-10-12T20:42:20.619Z,17.60
2022-10-12T20:52:15.331Z,18.10
2022-10-12T21:02:15.417Z,19.10
2022-10-12T21:12:15.428Z,18.90
2022-10-12T21:22:15.377Z,18.30
2022-10-12T21:32:15.405Z,18.00
2022-10-12T21:42:15.281Z,17.10
2022-10-12T21:52:15.437Z,17.40
2022-10-12T22:02:15.330Z,16.40
2022-10-12T22:12:15.351Z,17.80
2022-10-12T22:22:15.381Z,19.00
2022-10-12T22:32:15.251Z,18.10
2022-10-12T22:42:15.128Z,19.70
2022-10-12T22:52:15.166Z,19.60
2022-10-12T23:02:15.193Z,20.70
2022-10-12T23:12:15.239Z,20.20
2022-10-12T23:22:15.346Z,21.50
2022-10-12T23:32:15.150Z,21.50
2022-10-12T23:42:15.355Z,21.50
2022-10-12T23:52:15.260Z,23.20
